createdAt,value
2023-05-18T00:00:41.367Z,14.60
2023-05-18T00:02:43.469Z,14.50
2023-05-18T00:04:45.981Z,14.50
2023-05-18T00:06:48.208Z,14.40
2023-05-18T00:08:49.972Z,14.30
2023-05-18T00:10:51.908Z,14.20
2023-05-18T00:12:53.775Z,14.10
2023-05-18T00:14:55.750Z,14.00
2023-05-18T00:16:58.097Z,13.90
2023-05-18T00:19:00.028Z,13.80
2023-05-18T00:21:02.330Z,13.70
2023-05-18T00:23:04.422Z,13.50
2023-05-18T00:25:06.508Z,13.40
2023-05-18T00:27:08.271Z,13.30
2023-05-18T00:29:10.521Z,13.20
2023-05-18T00:31:12.436Z,13.10
2023-05-18T00:33:14.356Z,13.10
2023-05-18T00:35:16.519Z,13.10
2023-05-18T00:37:18.311Z,13.10
2023-05-18T00:39:20.538Z,13.10
2023-05-18T00:41:22.856Z,13.00
2023-05-18T00:43:24.790Z,13.10
2023-05-18T00:45:26.985Z,13.10
2023-05-18T00:47:29.000Z,13.00
2023-05-18T00:49:30.989Z,12.90
2023-05-18T00:51:33.083Z,12.80
2023-05-18T00:53:36.134Z,12.80
2023-05-18T00:55:38.276Z,12.70
2023-05-18T00:57:42.131Z,12.70
2023-05-18T00:59:45.059Z,12.70
2023-05-18T01:01:47.203Z,12.60
2023-05-18T01:03:48.965Z,12.50
2023-05-18T01:05:55.838Z,12.30
2023-05-18T01:07:58.094Z,12.40
2023-05-18T01:10:00.375Z,12.40
2023-05-18T01:12:34.397Z,12.50
2023-05-18T01:14:45.691Z,12.40
2023-05-18T01:17:01.223Z,12.30
2023-05-18T01:19:37.819Z,12.20
2023-05-18T01:22:12.858Z,12.30
2023-05-18T01:24:17.675Z,12.20
2023-05-18T01:26:30.072Z,12.20
2023-05-18T01:28:33.833Z,12.10
2023-05-18T01:30:40.758Z,12.10
2023-05-18T01:32:43.021Z,12.20
2023-05-18T01:34:45.182Z,12.20
2023-05-18T01:36:47.180Z,12.20
2023-05-18T01:38:51.558Z,12.30
2023-05-18T01:40:59.073Z,12.20
2023-05-18T01:43:10.900Z,12.20
2023-05-18T01:45:21.700Z,12.20
2023-05-18T01:47:25.365Z,12.20
2023-05-18T01:49:56.399Z,12.10
2023-05-18T01:52:03.665Z,12.20
2023-05-18T01:54:08.401Z,12.20
2023-05-18T01:56:12.729Z,12.20
2023-05-18T01:58:15.911Z,11.90
2023-05-18T02:00:18.801Z,11.80
2023-05-18T02:02:21.437Z,11.90
2023-05-18T02:04:23.441Z,11.90
2023-05-18T02:06:25.569Z,12.00
2023-05-18T02:08:27.354Z,12.00
2023-05-18T02:10:29.279Z,12.00
2023-05-18T02:12:31.324Z,12.00
2023-05-18T02:14:36.536Z,12.00
2023-05-18T02:16:38.812Z,12.00
2023-05-18T02:18:40.865Z,12.00
2023-05-18T02:20:42.994Z,12.00
2023-05-18T02:22:46.036Z,12.10
2023-05-18T02:24:47.946Z,12.00
2023-05-18T02:26:49.862Z,12.00
2023-05-18T02:28:51.993Z,12.00
2023-05-18T02:30:53.940Z,12.00
2023-05-18T02:32:55.901Z,12.10
2023-05-18T02:34:57.721Z,12.20
2023-05-18T02:37:04.093Z,12.20
2023-05-18T02:39:07.096Z,12.20
2023-05-18T02:41:10.695Z,12.10
2023-05-18T02:43:13.408Z,12.20
2023-05-18T02:45:15.288Z,12.60
2023-05-18T02:47:17.328Z,13.10
2023-05-18T02:49:19.134Z,13.30
2023-05-18T02:51:21.912Z,13.40
2023-05-18T02:53:23.844Z,13.40
2023-05-18T02:55:25.796Z,13.60
2023-05-18T02:57:27.791Z,13.90
2023-05-18T02:59:29.735Z,14.00
2023-05-18T03:01:31.664Z,14.20
2023-05-18T03:03:37.181Z,14.10
2023-05-18T03:05:39.221Z,13.90
2023-05-18T03:07:42.250Z,13.70
2023-05-18T03:09:44.131Z,13.30
2023-05-18T03:11:46.274Z,13.20
2023-05-18T03:13:48.299Z,13.10
2023-05-18T03:15:51.109Z,12.70
2023-05-18T03:17:54.123Z,12.80
2023-05-18T03:19:57.333Z,12.80
2023-05-18T03:21:59.202Z,12.80
2023-05-18T03:24:01.284Z,12.90
2023-05-18T03:26:11.477Z,12.90
2023-05-18T03:28:13.416Z,12.90
2023-05-18T03:30:15.757Z,13.00
2023-05-18T03:32:18.326Z,13.00
2023-05-18T03:34:20.223Z,12.90
2023-05-18T03:36:22.727Z,12.90
2023-05-18T03:38:24.792Z,12.90
2023-05-18T03:40:26.533Z,13.10
2023-05-18T03:42:28.509Z,13.30
2023-05-18T03:44:30.912Z,13.40
2023-05-18T03:46:32.877Z,13.50
2023-05-18T03:48:34.837Z,13.60
2023-05-18T03:50:36.895Z,13.60
2023-05-18T03:52:39.286Z,13.70
2023-05-18T03:54:42.855Z,13.80
2023-05-18T03:56:44.794Z,13.80
2023-05-18T03:58:46.709Z,13.80
2023-05-18T04:00:49.746Z,13.80
2023-05-18T04:02:52.162Z,13.90
2023-05-18T04:04:54.471Z,14.10
2023-05-18T04:06:56.482Z,14.20
2023-05-18T04:09:02.736Z,14.60
2023-05-18T04:11:04.911Z,14.70
2023-05-18T04:13:06.752Z,14.80
2023-05-18T04:15:08.996Z,15.00
2023-05-18T04:17:10.908Z,15.20
2023-05-18T04:19:13.867Z,15.40
2023-05-18T04:21:16.237Z,15.50
2023-05-18T04:23:18.186Z,15.70
2023-05-18T04:25:20.424Z,15.80
2023-05-18T04:27:22.717Z,16.00
2023-05-18T04:29:24.605Z,16.20
2023-05-18T04:31:28.059Z,16.40
2023-05-18T04:33:30.213Z,16.60
2023-05-18T04:35:32.453Z,16.80
2023-05-18T04:37:34.817Z,17.00
2023-05-18T04:39:39.725Z,17.20
2023-05-18T04:41:42.396Z,17.20
2023-05-18T04:43:44.373Z,17.40
2023-05-18T04:45:47.025Z,17.50
2023-05-18T04:47:53.833Z,17.60
2023-05-18T04:49:56.474Z,17.80
2023-05-18T04:51:59.959Z,17.90
2023-05-18T04:54:03.336Z,18.00
2023-05-18T04:56:06.088Z,18.20
2023-05-18T04:58:10.435Z,18.30
2023-05-18T05:00:13.025Z,18.40
2023-05-18T05:02:15.023Z,18.50
2023-05-18T05:04:16.850Z,18.80
2023-05-18T05:06:18.775Z,18.80
2023-05-18T05:08:21.268Z,18.80
2023-05-18T05:10:23.413Z,18.80
2023-05-18T05:12:25.408Z,19.00
2023-05-18T05:14:27.386Z,19.20
2023-05-18T05:16:29.304Z,19.40
2023-05-18T05:18:32.283Z,19.60
2023-05-18T05:20:34.614Z,19.80
2023-05-18T05:22:36.974Z,19.90
2023-05-18T05:24:39.037Z,19.90
2023-05-18T05:26:41.020Z,19.90
2023-05-18T05:28:42.913Z,20.10
2023-05-18T05:30:44.712Z,20.20
2023-05-18T05:32:46.664Z,20.40
2023-05-18T05:34:50.446Z,20.40
2023-05-18T05:36:52.387Z,20.60
2023-05-18T05:38:54.309Z,20.70
2023-05-18T05:40:56.205Z,20.80
2023-05-18T05:42:58.153Z,20.70
2023-05-18T05:45:00.049Z,20.80
2023-05-18T05:47:02.130Z,20.80
2023-05-18T05:49:04.194Z,20.70
2023-05-18T05:51:06.081Z,20.80
2023-05-18T05:53:08.058Z,20.90
2023-05-18T05:55:09.967Z,21.10
2023-05-18T05:57:11.841Z,21.30
2023-05-18T05:59:13.729Z,21.60
2023-05-18T06:01:16.019Z,21.70
2023-05-18T06:03:18.004Z,21.70
2023-05-18T06:05:19.849Z,21.60
2023-05-18T06:07:22.005Z,21.70
2023-05-18T06:09:23.930Z,21.80
2023-05-18T06:11:26.723Z,21.80
2023-05-18T06:13:28.613Z,21.70
2023-05-18T06:15:30.994Z,21.80
2023-05-18T06:17:33.210Z,22.20
2023-05-18T06:19:35.117Z,22.30
2023-05-18T06:21:37.163Z,22.20
2023-05-18T06:23:41.678Z,22.20
2023-05-18T06:25:43.874Z,22.10
2023-05-18T06:27:46.186Z,22.10
2023-05-18T06:29:48.584Z,22.00
2023-05-18T06:31:50.620Z,22.10
2023-05-18T06:33:52.574Z,22.20
2023-05-18T06:35:54.663Z,22.50
2023-05-18T06:37:56.594Z,22.40
2023-05-18T06:39:58.614Z,22.30
2023-05-18T06:42:00.558Z,22.30
2023-05-18T06:44:03.332Z,22.40
2023-05-18T06:46:05.420Z,22.40
2023-05-18T06:48:07.419Z,22.30
2023-05-18T06:50:09.765Z,22.30
2023-05-18T06:52:11.673Z,22.80
2023-05-18T06:54:13.506Z,23.00
2023-05-18T06:56:15.445Z,23.00
2023-05-18T06:58:17.231Z,22.90
2023-05-18T07:00:19.541Z,23.00
2023-05-18T07:02:21.628Z,23.00
2023-05-18T07:04:23.605Z,22.70
2023-05-18T07:06:25.518Z,22.80
2023-05-18T07:08:27.496Z,22.70
2023-05-18T07:10:29.282Z,22.70
2023-05-18T07:12:31.582Z,22.80
2023-05-18T07:14:33.454Z,22.80
2023-05-18T07:16:35.586Z,22.80
2023-05-18T07:18:38.777Z,22.90
2023-05-18T07:20:40.815Z,22.90
2023-05-18T07:22:42.631Z,23.00
2023-05-18T07:24:44.531Z,23.00
2023-05-18T07:26:46.362Z,23.00
2023-05-18T07:28:48.748Z,23.00
2023-05-18T07:30:50.861Z,23.00
2023-05-18T07:32:53.364Z,23.00
2023-05-18T07:34:55.356Z,23.10
2023-05-18T07:36:57.862Z,23.10
2023-05-18T07:39:00.464Z,23.10
2023-05-18T07:41:02.392Z,23.10
2023-05-18T07:43:04.196Z,23.00
2023-05-18T07:45:07.074Z,23.20
2023-05-18T07:47:09.235Z,23.20
2023-05-18T07:49:11.246Z,23.20
2023-05-18T07:51:13.390Z,23.40
2023-05-18T07:53:15.393Z,23.40
2023-05-18T07:55:17.531Z,23.50
2023-05-18T07:57:19.888Z,23.50
2023-05-18T07:59:21.835Z,23.60
2023-05-18T08:01:27.556Z,23.30
2023-05-18T08:03:29.664Z,23.60
2023-05-18T08:05:31.926Z,23.60
2023-05-18T08:07:34.190Z,23.40
2023-05-18T08:09:36.107Z,23.40
2023-05-18T08:11:38.119Z,23.50
2023-05-18T08:13:40.153Z,23.60
2023-05-18T08:15:42.643Z,23.80
2023-05-18T08:17:44.667Z,23.50
2023-05-18T08:19:47.884Z,23.80
2023-05-18T08:21:49.834Z,23.90
2023-05-18T08:23:51.608Z,23.80
2023-05-18T08:25:53.781Z,23.70
2023-05-18T08:27:56.011Z,23.80
2023-05-18T08:29:57.922Z,24.00
2023-05-18T08:31:59.828Z,24.30
2023-05-18T08:34:01.971Z,24.20
2023-05-18T08:36:04.734Z,24.20
2023-05-18T08:38:06.931Z,24.10
2023-05-18T08:40:11.568Z,24.10
2023-05-18T08:42:19.133Z,23.90
2023-05-18T08:44:23.120Z,23.80
2023-05-18T08:46:35.895Z,24.20
2023-05-18T08:48:38.187Z,24.30
2023-05-18T08:50:42.043Z,24.10
2023-05-18T08:52:48.586Z,24.10
2023-05-18T08:54:53.219Z,23.90
2023-05-18T08:56:55.240Z,23.80
2023-05-18T08:58:57.987Z,24.10
2023-05-18T09:01:00.693Z,24.10
2023-05-18T09:03:05.362Z,24.50
2023-05-18T09:05:08.377Z,24.80
2023-05-18T09:07:11.330Z,24.80
2023-05-18T09:09:14.819Z,24.70
2023-05-18T09:11:18.552Z,24.50
2023-05-18T09:13:23.487Z,24.80
2023-05-18T09:15:26.318Z,25.00
2023-05-18T09:17:28.448Z,24.80
2023-05-18T09:19:30.430Z,25.00
2023-05-18T09:21:32.997Z,24.70
2023-05-18T09:23:35.301Z,25.00
2023-05-18T09:25:46.977Z,24.90
2023-05-18T09:27:49.254Z,25.10
2023-05-18T09:29:56.659Z,24.90
2023-05-18T09:32:04.573Z,24.50
2023-05-18T09:34:06.845Z,24.70
2023-05-18T09:36:09.926Z,24.50
2023-05-18T09:38:15.478Z,24.80
2023-05-18T09:40:19.524Z,24.50
2023-05-18T09:42:22.872Z,24.40
2023-05-18T09:44:33.610Z,24.90
2023-05-18T09:46:40.167Z,25.10
2023-05-18T09:48:44.351Z,25.30
2023-05-18T09:50:46.548Z,25.40
2023-05-18T09:52:51.684Z,25.10
2023-05-18T09:54:59.818Z,25.10
2023-05-18T09:57:10.869Z,25.40
2023-05-18T09:59:16.346Z,25.40
2023-05-18T10:01:18.815Z,25.30
2023-05-18T10:03:23.451Z,25.50
2023-05-18T10:05:27.541Z,25.60
2023-05-18T10:07:29.466Z,25.70
2023-05-18T10:09:31.781Z,25.50
2023-05-18T10:11:35.111Z,25.20
2023-05-18T10:13:37.481Z,25.10
2023-05-18T10:15:47.543Z,25.10
2023-05-18T10:17:51.467Z,25.30
2023-05-18T10:19:57.029Z,25.20
2023-05-18T10:22:00.312Z,25.30
2023-05-18T10:24:05.714Z,25.40
2023-05-18T10:26:10.152Z,24.90
2023-05-18T10:28:13.968Z,24.70
2023-05-18T10:30:17.960Z,25.20
2023-05-18T10:32:23.109Z,25.70
2023-05-18T10:34:25.707Z,25.50
2023-05-18T10:36:30.263Z,25.30
2023-05-18T10:38:33.219Z,25.70
2023-05-18T10:40:37.033Z,25.60
2023-05-18T10:42:41.036Z,25.40
2023-05-18T10:44:45.008Z,25.60
2023-05-18T10:46:47.284Z,26.10
2023-05-18T10:48:51.593Z,25.80
2023-05-18T10:50:55.685Z,25.60
2023-05-18T10:53:00.786Z,25.90
2023-05-18T10:55:04.606Z,25.30
2023-05-18T10:57:07.117Z,25.20
2023-05-18T10:59:09.857Z,25.30
2023-05-18T11:01:12.712Z,25.30
2023-05-18T11:03:16.231Z,25.70
2023-05-18T11:05:26.734Z,26.30
2023-05-18T11:07:30.615Z,26.10
2023-05-18T11:09:33.756Z,26.10
2023-05-18T11:11:53.195Z,26.40
2023-05-18T11:13:59.414Z,26.50
2023-05-18T11:16:05.609Z,26.10
2023-05-18T11:18:14.308Z,26.10
2023-05-18T11:20:17.403Z,26.10
2023-05-18T11:22:19.364Z,26.10
2023-05-18T11:24:32.099Z,25.90
2023-05-18T11:26:39.794Z,25.90
2023-05-18T11:28:44.893Z,25.90
2023-05-18T11:30:48.403Z,25.90
2023-05-18T11:33:08.108Z,25.90
2023-05-18T11:35:24.105Z,25.70
2023-05-18T11:37:47.051Z,25.70
2023-05-18T11:40:00.161Z,26.30
2023-05-18T11:42:07.768Z,26.60
2023-05-18T11:44:14.940Z,27.20
2023-05-18T11:46:22.209Z,27.30
2023-05-18T11:48:26.112Z,27.20
2023-05-18T11:50:33.972Z,27.10
2023-05-18T11:52:47.350Z,27.30
2023-05-18T11:54:54.277Z,27.20
2023-05-18T11:56:56.415Z,27.70
2023-05-18T11:59:14.506Z,27.20
2023-05-18T12:01:16.688Z,27.00
2023-05-18T12:03:23.917Z,26.80
2023-05-18T12:05:30.711Z,27.30
2023-05-18T12:07:33.747Z,27.30
2023-05-18T12:09:36.731Z,26.80
2023-05-18T12:11:39.460Z,26.40
2023-05-18T12:13:41.803Z,26.40
2023-05-18T12:15:44.841Z,26.20
2023-05-18T12:17:51.133Z,25.90
2023-05-18T12:19:53.108Z,26.20
2023-05-18T12:21:56.758Z,26.10
2023-05-18T12:24:01.258Z,26.10
2023-05-18T12:26:03.157Z,26.30
2023-05-18T12:28:05.245Z,26.30
2023-05-18T12:30:16.329Z,26.60
2023-05-18T12:32:19.593Z,27.30
2023-05-18T12:34:21.649Z,28.10
2023-05-18T12:36:23.619Z,28.10
2023-05-18T12:38:27.861Z,27.40
2023-05-18T12:40:48.735Z,26.90
2023-05-18T12:43:01.255Z,26.70
2023-05-18T12:45:05.774Z,26.30
2023-05-18T12:47:10.153Z,25.90
2023-05-18T12:49:12.276Z,25.80
2023-05-18T12:51:20.856Z,25.80
2023-05-18T12:53:24.180Z,25.70
2023-05-18T12:55:26.637Z,25.60
2023-05-18T12:57:31.043Z,25.70
2023-05-18T12:59:33.442Z,26.20
2023-05-18T13:01:44.062Z,26.80
2023-05-18T13:03:46.243Z,27.00
2023-05-18T13:06:03.602Z,26.90
2023-05-18T13:08:05.787Z,26.80
2023-05-18T13:10:09.886Z,26.70
2023-05-18T13:12:12.592Z,26.30
2023-05-18T13:14:14.537Z,25.90
2023-05-18T13:16:16.911Z,25.60
2023-05-18T13:18:18.958Z,25.60
2023-05-18T13:20:20.898Z,25.60
2023-05-18T13:22:22.811Z,25.50
2023-05-18T13:24:24.763Z,25.40
2023-05-18T13:26:27.233Z,25.40
2023-05-18T13:28:29.190Z,25.50
2023-05-18T13:30:32.214Z,25.60
2023-05-18T13:32:34.884Z,25.30
2023-05-18T13:34:36.825Z,25.50
2023-05-18T13:36:38.756Z,25.40
2023-05-18T13:38:41.568Z,25.70
2023-05-18T13:40:43.543Z,25.90
2023-05-18T13:42:46.809Z,25.90
2023-05-18T13:44:48.769Z,26.10
2023-05-18T13:46:50.808Z,26.40
2023-05-18T13:48:52.693Z,26.50
2023-05-18T13:50:55.203Z,27.90
2023-05-18T13:52:57.142Z,27.40
2023-05-18T13:54:59.058Z,26.90
2023-05-18T13:57:01.158Z,26.70
2023-05-18T13:59:03.761Z,26.90
2023-05-18T14:01:08.736Z,27.20
2023-05-18T14:03:11.478Z,27.50
2023-05-18T14:05:14.563Z,26.50
2023-05-18T14:07:16.463Z,26.30
2023-05-18T14:09:18.336Z,26.60
2023-05-18T14:11:20.208Z,27.50
2023-05-18T14:13:22.395Z,28.30
2023-05-18T14:15:24.422Z,27.70
2023-05-18T14:17:27.569Z,27.40
2023-05-18T14:19:29.618Z,27.90
2023-05-18T14:21:31.661Z,28.60
2023-05-18T14:23:33.577Z,27.60
2023-05-18T14:25:35.500Z,27.10
2023-05-18T14:27:37.530Z,27.60
2023-05-18T14:29:39.435Z,27.90
2023-05-18T14:31:41.353Z,26.80
2023-05-18T14:33:43.442Z,26.10
2023-05-18T14:35:45.878Z,26.70
2023-05-18T14:37:47.817Z,27.50
2023-05-18T14:39:49.864Z,27.60
2023-05-18T14:41:52.083Z,26.10
2023-05-18T14:43:54.426Z,25.70
2023-05-18T14:46:07.305Z,25.40
2023-05-18T14:48:11.410Z,25.20
2023-05-18T14:50:13.516Z,25.10
2023-05-18T14:52:15.553Z,25.10
2023-05-18T14:54:19.082Z,25.10
2023-05-18T14:56:21.834Z,25.10
2023-05-18T14:58:23.741Z,25.10
2023-05-18T15:00:25.708Z,25.00
2023-05-18T15:02:27.675Z,24.90
2023-05-18T15:04:29.716Z,24.90
2023-05-18T15:06:31.798Z,24.90
2023-05-18T15:08:33.748Z,24.80
2023-05-18T15:10:35.651Z,24.80
2023-05-18T15:12:37.647Z,24.80
2023-05-18T15:14:39.636Z,24.80
2023-05-18T15:16:42.527Z,24.70
2023-05-18T15:18:44.583Z,24.80
2023-05-18T15:20:46.998Z,24.70
2023-05-18T15:22:49.829Z,24.80
2023-05-18T15:24:51.778Z,24.80
2023-05-18T15:26:53.600Z,25.10
2023-05-18T15:28:55.578Z,25.00
2023-05-18T15:30:57.494Z,25.10
2023-05-18T15:33:02.379Z,25.00
2023-05-18T15:35:04.927Z,24.90
2023-05-18T15:37:06.842Z,25.00
2023-05-18T15:39:09.358Z,25.30
2023-05-18T15:41:11.269Z,25.10
2023-05-18T15:43:13.428Z,25.50
2023-05-18T15:45:15.364Z,25.20
2023-05-18T15:47:17.557Z,25.30
2023-05-18T15:49:21.213Z,25.20
2023-05-18T15:51:23.088Z,25.10
2023-05-18T15:53:24.896Z,25.40
2023-05-18T15:55:26.813Z,25.30
2023-05-18T15:57:28.590Z,25.20
2023-05-18T15:59:30.519Z,25.20
2023-05-18T16:01:32.620Z,25.10
2023-05-18T16:03:34.683Z,25.20
2023-05-18T16:05:36.811Z,25.10
2023-05-18T16:07:41.124Z,25.00
2023-05-18T16:09:43.074Z,24.90
2023-05-18T16:11:44.930Z,24.90
2023-05-18T16:13:50.229Z,24.80
2023-05-18T16:15:52.172Z,24.80
2023-05-18T16:17:54.672Z,24.70
2023-05-18T16:19:56.821Z,24.60
2023-05-18T16:21:58.682Z,24.60
2023-05-18T16:24:00.550Z,24.50
2023-05-18T16:26:05.392Z,24.50
2023-05-18T16:28:07.314Z,24.40
2023-05-18T16:30:09.331Z,24.30
2023-05-18T16:32:11.256Z,24.30
2023-05-18T16:34:13.069Z,24.20
2023-05-18T16:36:15.020Z,24.20
2023-05-18T16:38:17.032Z,24.20
2023-05-18T16:40:18.966Z,24.10
2023-05-18T16:42:22.428Z,24.10
2023-05-18T16:44:24.432Z,24.10
2023-05-18T16:46:26.207Z,24.10
2023-05-18T16:48:28.234Z,24.00
2023-05-18T16:50:30.863Z,23.90
2023-05-18T16:52:32.934Z,23.80
2023-05-18T16:54:34.703Z,24.00
2023-05-18T16:56:36.658Z,24.00
2023-05-18T16:58:38.541Z,23.90
2023-05-18T17:00:40.533Z,23.90
2023-05-18T17:02:42.819Z,24.00
2023-05-18T17:04:50.493Z,23.90
2023-05-18T17:06:52.737Z,23.70
2023-05-18T17:08:58.316Z,23.50
2023-05-18T17:11:00.724Z,23.40
2023-05-18T17:13:02.858Z,23.20
2023-05-18T17:15:05.643Z,23.20
2023-05-18T17:17:07.935Z,23.20
2023-05-18T17:19:10.045Z,23.10
2023-05-18T17:21:12.250Z,23.00
2023-05-18T17:23:17.521Z,22.90
2023-05-18T17:25:19.841Z,22.80
2023-05-18T17:27:21.886Z,22.80
2023-05-18T17:29:23.867Z,22.70
2023-05-18T17:31:25.933Z,22.70
2023-05-18T17:33:27.919Z,22.60
2023-05-18T17:35:29.744Z,22.60
2023-05-18T17:37:31.664Z,22.60
2023-05-18T17:39:33.445Z,22.50
2023-05-18T17:41:35.428Z,22.50
2023-05-18T17:43:37.738Z,22.40
2023-05-18T17:45:39.684Z,22.40
2023-05-18T17:47:41.942Z,22.40
2023-05-18T17:49:44.007Z,22.30
2023-05-18T17:51:46.225Z,22.30
2023-05-18T17:53:48.153Z,22.30
2023-05-18T17:55:50.003Z,22.20
2023-05-18T17:57:51.912Z,22.30
2023-05-18T17:59:53.725Z,22.20
2023-05-18T18:01:55.830Z,22.20
2023-05-18T18:03:58.231Z,22.10
2023-05-18T18:06:00.877Z,22.00
2023-05-18T18:08:02.804Z,22.10
2023-05-18T18:10:05.048Z,22.10
2023-05-18T18:12:07.245Z,22.00
2023-05-18T18:14:09.252Z,21.90
2023-05-18T18:16:11.166Z,21.90
2023-05-18T18:18:13.301Z,21.80
2023-05-18T18:20:15.454Z,21.80
2023-05-18T18:22:17.408Z,21.70
2023-05-18T18:24:19.214Z,21.70
2023-05-18T18:26:21.759Z,21.60
2023-05-18T18:28:23.646Z,21.60
2023-05-18T18:30:25.608Z,21.50
2023-05-18T18:32:27.527Z,21.50
2023-05-18T18:34:29.474Z,21.50
2023-05-18T18:36:31.665Z,21.40
2023-05-18T18:38:34.104Z,21.40
2023-05-18T18:40:36.181Z,21.30
2023-05-18T18:42:38.054Z,21.30
2023-05-18T18:44:40.012Z,21.20
2023-05-18T18:46:41.826Z,21.00
2023-05-18T18:48:43.704Z,20.90
2023-05-18T18:50:45.702Z,20.90
2023-05-18T18:52:47.569Z,20.90
2023-05-18T18:54:49.498Z,20.80
2023-05-18T18:56:51.687Z,20.80
2023-05-18T18:58:53.549Z,20.70
2023-05-18T19:00:55.783Z,20.60
2023-05-18T19:02:57.818Z,20.60
2023-05-18T19:04:59.828Z,20.50
2023-05-18T19:07:03.286Z,20.50
2023-05-18T19:09:05.397Z,20.20
2023-05-18T19:11:07.197Z,20.20
2023-05-18T19:13:09.100Z,20.20
2023-05-18T19:15:13.474Z,20.10
2023-05-18T19:17:16.264Z,20.10
2023-05-18T19:19:18.247Z,20.00
2023-05-18T19:21:20.203Z,20.00
2023-05-18T19:23:22.160Z,20.00
2023-05-18T19:25:26.838Z,19.90
2023-05-18T19:27:29.024Z,19.80
2023-05-18T19:29:31.167Z,19.70
2023-05-18T19:31:34.598Z,19.70
2023-05-18T19:33:36.652Z,19.70
2023-05-18T19:35:38.455Z,19.60
2023-05-18T19:37:40.478Z,19.50
2023-05-18T19:39:42.474Z,19.40
2023-05-18T19:41:45.867Z,19.40
2023-05-18T19:43:47.807Z,19.40
2023-05-18T19:45:50.264Z,19.30
2023-05-18T19:47:52.385Z,19.10
2023-05-18T19:49:54.348Z,19.10
2023-05-18T19:51:56.434Z,19.00
2023-05-18T19:53:58.418Z,18.90
2023-05-18T19:56:00.659Z,18.80
2023-05-18T19:58:02.864Z,18.90
2023-05-18T20:00:07.465Z,18.80
2023-05-18T20:02:09.526Z,18.80
2023-05-18T20:04:11.428Z,18.80
2023-05-18T20:06:13.805Z,18.70
2023-05-18T20:08:16.575Z,18.60
2023-05-18T20:10:18.641Z,18.60
2023-05-18T20:12:20.496Z,18.60
2023-05-18T20:14:26.968Z,18.60
2023-05-18T20:16:29.457Z,18.50
2023-05-18T20:18:37.589Z,18.50
2023-05-18T20:20:39.599Z,18.60
2023-05-18T20:22:41.802Z,18.50
2023-05-18T20:24:44.728Z,18.50
2023-05-18T20:26:46.688Z,18.40
2023-05-18T20:28:48.681Z,18.40
2023-05-18T20:30:50.829Z,18.50
2023-05-18T20:32:52.758Z,18.50
2023-05-18T20:34:54.631Z,18.40
2023-05-18T20:36:56.731Z,18.40
2023-05-18T20:38:59.371Z,18.40
2023-05-18T20:41:01.748Z,18.30
2023-05-18T20:43:05.138Z,18.20
2023-05-18T20:45:08.336Z,18.30
2023-05-18T20:47:11.324Z,18.20
2023-05-18T20:49:13.287Z,18.20
2023-05-18T20:51:18.843Z,18.00
2023-05-18T20:53:21.936Z,17.70
2023-05-18T20:55:24.068Z,17.60
2023-05-18T20:57:27.861Z,17.60
2023-05-18T20:59:29.807Z,17.50
2023-05-18T21:01:32.275Z,17.60
2023-05-18T21:03:34.506Z,17.60
2023-05-18T21:05:36.525Z,17.60
2023-05-18T21:07:40.186Z,17.70
2023-05-18T21:09:42.712Z,17.80
2023-05-18T21:11:44.676Z,17.70
2023-05-18T21:13:46.574Z,17.70
2023-05-18T21:15:48.685Z,17.70
2023-05-18T21:17:50.735Z,17.60
2023-05-18T21:19:52.779Z,17.50
2023-05-18T21:21:54.691Z,17.60
2023-05-18T21:23:56.639Z,17.50
2023-05-18T21:25:58.550Z,17.50
2023-05-18T21:28:00.577Z,17.50
2023-05-18T21:30:02.513Z,17.50
2023-05-18T21:32:04.911Z,17.50
2023-05-18T21:34:06.946Z,17.50
2023-05-18T21:36:10.009Z,17.50
2023-05-18T21:38:13.615Z,17.50
2023-05-18T21:40:15.609Z,17.40
2023-05-18T21:42:17.439Z,17.30
2023-05-18T21:44:19.446Z,17.30
2023-05-18T21:46:21.358Z,17.30
2023-05-18T21:48:23.295Z,17.40
2023-05-18T21:50:25.397Z,17.40
2023-05-18T21:52:27.303Z,17.30
2023-05-18T21:54:32.667Z,17.30
2023-05-18T21:56:36.766Z,17.30
2023-05-18T21:58:38.671Z,17.30
2023-05-18T22:00:40.578Z,17.30
2023-05-18T22:02:42.639Z,17.20
2023-05-18T22:04:44.563Z,17.10
2023-05-18T22:06:46.672Z,17.20
2023-05-18T22:08:48.541Z,17.10
2023-05-18T22:10:50.583Z,17.20
2023-05-18T22:12:52.437Z,17.10
2023-05-18T22:14:54.327Z,17.10
2023-05-18T22:16:56.207Z,17.10
2023-05-18T22:18:58.311Z,17.00
2023-05-18T22:21:00.252Z,16.90
2023-05-18T22:23:04.394Z,16.80
2023-05-18T22:25:06.894Z,16.60
2023-05-18T22:27:08.780Z,16.50
2023-05-18T22:29:10.824Z,16.50
2023-05-18T22:31:12.731Z,16.50
2023-05-18T22:33:14.651Z,16.40
2023-05-18T22:35:16.526Z,16.30
2023-05-18T22:37:18.481Z,16.30
2023-05-18T22:39:20.278Z,16.30
2023-05-18T22:41:22.574Z,16.20
2023-05-18T22:43:24.693Z,16.30
2023-05-18T22:45:26.750Z,16.30
2023-05-18T22:47:30.078Z,16.20
2023-05-18T22:49:32.644Z,16.10
2023-05-18T22:51:35.715Z,16.00
2023-05-18T22:53:37.632Z,16.00
2023-05-18T22:55:39.659Z,16.00
2023-05-18T22:57:41.887Z,16.00
2023-05-18T22:59:43.828Z,15.90
2023-05-18T23:01:45.818Z,15.90
2023-05-18T23:03:47.601Z,15.90
2023-05-18T23:05:49.848Z,15.80
2023-05-18T23:07:52.378Z,15.80
2023-05-18T23:09:54.360Z,15.70
2023-05-18T23:11:56.629Z,15.70
2023-05-18T23:14:02.683Z,15.80
2023-05-18T23:16:05.809Z,15.70
2023-05-18T23:18:10.815Z,15.70
2023-05-18T23:20:13.092Z,15.70
2023-05-18T23:22:14.957Z,15.60
2023-05-18T23:24:17.302Z,15.50
2023-05-18T23:26:19.276Z,15.50
2023-05-18T23:28:21.328Z,15.40
2023-05-18T23:30:23.102Z,15.30
2023-05-18T23:32:26.569Z,15.30
2023-05-18T23:34:28.956Z,15.30
2023-05-18T23:36:35.003Z,15.30
2023-05-18T23:38:41.100Z,15.20
2023-05-18T23:40:43.265Z,15.10
2023-05-18T23:42:45.439Z,15.00
2023-05-18T23:44:48.232Z,15.00
2023-05-18T23:46:50.592Z,14.90
2023-05-18T23:48:52.807Z,15.00
2023-05-18T23:51:02.778Z,15.10
2023-05-18T23:53:05.772Z,15.00
2023-05-18T23:55:10.571Z,14.90
2023-05-18T23:57:12.746Z,14.90
2023-05-18T23:59:15.867Z,14.80
